Time;durP1;ratioP1;P1;durP2;ratioP2;P2;SDS_P1;SDS_P2;PMS_P1;PMS_P2;Temp;Humidity;BMP_temperature;BMP_pressure;BME280_temperature;BME280_humidity;BME280_pressure;Samples;Min_cycle;Max_cycle;Signal;HPM_P1;HPM_P2
2022/01/08 00:01:11;;;;;;;1.60;1.43;;;3.50;98.20;;;;;;5004127;28;20475;-72
2022/01/08 00:03:39;;;;;;;1.67;1.40;;;3.50;98.20;;;;;;5025987;28;20460;-71
2022/01/08 00:06:06;;;;;;;1.70;1.40;;;3.50;98.20;;;;;;5000871;28;20477;-72
2022/01/08 00:08:33;;;;;;;1.63;1.40;;;3.50;98.20;;;;;;5025346;28;20460;-72
2022/01/08 00:11:01;;;;;;;1.70;1.50;;;3.50;98.20;;;;;;5000528;28;20484;-72
2022/01/08 00:13:28;;;;;;;1.63;1.40;;;3.50;98.20;;;;;;5025886;28;20563;-72
2022/01/08 00:15:55;;;;;;;1.67;1.40;;;3.50;98.20;;;;;;5002090;28;20839;-72
2022/01/08 00:18:22;;;;;;;1.67;1.40;;;3.50;98.20;;;;;;5024079;28;20470;-73
2022/01/08 00:20:48;;;;;;;1.70;1.50;;;3.50;98.20;;;;;;5005109;28;20499;-72
2022/01/08 00:23:17;;;;;;;1.67;1.43;;;3.50;98.20;;;;;;5010072;28;20482;-72
2022/01/08 00:25:44;;;;;;;1.70;1.40;;;3.50;98.20;;;;;;5012766;28;20544;-72
2022/01/08 00:28:12;;;;;;;1.70;1.60;;;3.50;98.20;;;;;;5017339;28;20671;-72
2022/01/08 00:30:39;;;;;;;1.70;1.60;;;3.50;98.20;;;;;;5009155;28;20522;-72
2022/01/08 00:33:06;;;;;;;1.60;1.40;;;3.50;98.20;;;;;;5013033;28;20540;-73
2022/01/08 00:35:34;;;;;;;1.70;1.50;;;3.60;98.20;;;;;;5011413;28;20456;-72
2022/01/08 00:38:02;;;;;;;1.70;1.60;;;3.60;98.20;;;;;;5013542;28;20484;-72
2022/01/08 00:40:29;;;;;;;1.70;1.40;;;3.60;98.20;;;;;;5011158;28;20484;-73
2022/01/08 00:42:56;;;;;;;1.70;1.60;;;3.60;98.20;;;;;;5010728;28;20490;-71
2022/01/08 00:45:24;;;;;;;1.70;1.40;;;3.60;98.20;;;;;;5002739;28;20484;-72
2022/01/08 00:47:51;;;;;;;1.67;1.40;;;3.60;98.20;;;;;;5010395;28;20479;-71
2022/01/08 00:50:18;;;;;;;1.70;1.50;;;3.60;98.20;;;;;;5007987;28;20456;-72
2022/01/08 00:52:46;;;;;;;1.70;1.50;;;3.50;98.20;;;;;;5020926;28;20478;-72
2022/01/08 00:55:13;;;;;;;1.70;1.40;;;3.50;98.20;;;;;;5013966;28;20452;-72
2022/01/08 00:57:40;;;;;;;1.70;1.40;;;3.50;98.20;;;;;;5021358;28;20481;-72
2022/01/08 01:00:10;;;;;;;1.70;1.40;;;3.50;98.20;;;;;;5014778;28;20842;-72
2022/01/08 01:02:39;;;;;;;1.70;1.60;;;3.50;98.20;;;;;;5020196;28;20487;-72
2022/01/08 01:05:08;;;;;;;1.70;1.40;;;3.50;98.20;;;;;;5011836;28;20468;-72
2022/01/08 01:07:35;;;;;;;1.63;1.40;;;3.50;98.20;;;;;;5014689;28;20474;-72
2022/01/08 01:10:02;;;;;;;1.67;1.40;;;3.50;98.20;;;;;;5011697;28;20475;-72
2022/01/08 01:12:29;;;;;;;1.67;1.43;;;3.50;98.20;;;;;;5013861;28;21000;-72
2022/01/08 01:14:56;;;;;;;1.70;1.50;;;3.50;98.20;;;;;;5017660;28;20947;-72
2022/01/08 01:17:23;;;;;;;1.70;1.50;;;3.50;98.20;;;;;;5011702;28;20482;-72
2022/01/08 01:19:52;;;;;;;1.70;1.50;;;3.50;98.20;;;;;;5017750;28;20467;-72
2022/01/08 01:22:22;;;;;;;1.70;1.50;;;3.50;98.20;;;;;;5011492;28;20513;-72
2022/01/08 01:24:50;;;;;;;1.60;1.40;;;3.40;98.20;;;;;;5017586;28;20464;-72
2022/01/08 01:27:51;;;;;;;1.60;1.30;;;3.40;98.20;;;;;;5012575;28;21027;-72
2022/01/08 01:30:18;;;;;;;1.60;1.40;;;3.40;98.20;;;;;;5017299;28;20948;-72
2022/01/08 01:41:16;;;;;;;1.70;1.43;;;3.20;98.20;;;;;;4999702;28;20471;-71
2022/01/08 01:49:10;;;;;;;1.70;1.60;;;3.00;98.20;;;;;;5015335;28;20447;-71
2022/01/08 01:51:38;;;;;;;1.80;1.70;;;2.90;98.20;;;;;;5008178;28;20552;-72
2022/01/08 01:54:05;;;;;;;1.70;1.40;;;2.90;98.20;;;;;;5048328;22;20497;-74
2022/01/08 01:56:31;;;;;;;1.67;1.40;;;2.90;98.20;;;;;;5014894;28;20483;-74
2022/01/08 01:58:58;;;;;;;1.70;1.60;;;2.80;98.20;;;;;;5034225;28;20466;-72
2022/01/08 02:01:25;;;;;;;1.70;1.50;;;2.80;98.20;;;;;;5028182;28;20478;-73
2022/01/08 02:03:53;;;;;;;1.70;1.50;;;2.80;98.20;;;;;;5036805;28;20467;-73
2022/01/08 02:06:20;;;;;;;1.67;1.40;;;2.80;98.20;;;;;;4993768;28;20490;-73
2022/01/08 02:08:49;;;;;;;1.70;1.50;;;2.70;98.20;;;;;;5018855;28;20473;-73
2022/01/08 02:11:18;;;;;;;1.70;1.50;;;2.70;98.20;;;;;;5000871;28;20479;-73
2022/01/08 02:13:44;;;;;;;1.70;1.50;;;2.60;98.20;;;;;;5018433;28;20471;-73
2022/01/08 02:16:17;;;;;;;1.70;1.50;;;2.60;98.20;;;;;;5000350;28;20963;-72
2022/01/08 02:18:44;;;;;;;1.63;1.40;;;2.50;98.20;;;;;;5020614;28;20459;-73
2022/01/08 02:21:13;;;;;;;1.70;1.50;;;2.50;98.20;;;;;;4996051;28;20868;-72
2022/01/08 02:23:40;;;;;;;1.70;1.60;;;2.50;98.20;;;;;;5021447;28;20463;-76
2022/01/08 02:26:08;;;;;;;1.70;1.53;;;2.40;98.20;;;;;;5002568;28;20478;-76
2022/01/08 02:28:36;;;;;;;1.67;1.50;;;2.40;98.20;;;;;;5031901;28;20468;-74
2022/01/08 02:31:03;;;;;;;1.70;1.60;;;2.30;98.20;;;;;;4999111;28;20493;-75
2022/01/08 02:33:31;;;;;;;1.70;1.50;;;2.30;98.20;;;;;;5009850;28;20476;-76
2022/01/08 02:36:04;;;;;;;1.67;1.50;;;2.20;98.20;;;;;;5003043;28;20475;-77
2022/01/08 02:38:32;;;;;;;1.70;1.50;;;2.20;98.20;;;;;;5012265;28;20455;-76
2022/01/08 02:41:03;;;;;;;1.70;1.50;;;2.10;98.20;;;;;;4992300;28;21034;-77
2022/01/08 02:43:33;;;;;;;1.70;1.50;;;2.10;98.20;;;;;;5015408;28;20464;-76
2022/01/08 02:46:00;;;;;;;1.70;1.53;;;2.10;98.20;;;;;;4995345;28;20556;-76
2022/01/08 02:48:27;;;;;;;1.70;1.60;;;2.00;98.20;;;;;;5023218;28;20473;-78
2022/01/08 02:50:53;;;;;;;1.70;1.50;;;2.00;98.20;;;;;;5000164;28;20472;-76
2022/01/08 02:53:20;;;;;;;1.70;1.43;;;1.90;98.20;;;;;;5029520;28;20954;-73
2022/01/08 02:55:49;;;;;;;1.70;1.53;;;1.90;98.20;;;;;;5006168;28;20494;-76
2022/01/08 02:58:16;;;;;;;1.80;1.70;;;1.90;98.20;;;;;;5027039;28;20463;-76
2022/01/08 03:00:43;;;;;;;1.70;1.57;;;1.80;98.20;;;;;;5008824;28;20487;-74
2022/01/08 03:03:10;;;;;;;1.60;1.50;;;1.80;98.20;;;;;;5014100;28;20499;-79
2022/01/08 03:05:36;;;;;;;1.70;1.60;;;1.80;98.20;;;;;;5005501;28;20489;-75
2022/01/08 03:08:03;;;;;;;1.77;1.67;;;1.80;98.20;;;;;;5010679;28;20492;-76
2022/01/08 03:10:30;;;;;;;1.70;1.53;;;1.80;98.20;;;;;;5014119;28;20464;-75
2022/01/08 03:12:58;;;;;;;1.70;1.50;;;1.80;98.20;;;;;;5009545;28;20484;-76
2022/01/08 03:15:26;;;;;;;1.70;1.60;;;1.80;98.20;;;;;;5024114;28;20544;-76
2022/01/08 03:17:53;;;;;;;1.70;1.50;;;1.80;98.20;;;;;;5004785;28;20560;-75
2022/01/08 03:20:20;;;;;;;1.70;1.57;;;1.80;98.20;;;;;;5011187;28;20475;-75
2022/01/08 03:22:49;;;;;;;1.70;1.50;;;1.80;98.20;;;;;;5012742;28;20478;-76
2022/01/08 03:25:16;;;;;;;1.70;1.50;;;1.80;98.20;;;;;;5013659;28;21010;-77
2022/01/08 03:27:44;;;;;;;1.70;1.60;;;1.80;98.20;;;;;;4995530;28;20475;-76
2022/01/08 03:30:14;;;;;;;1.70;1.50;;;1.80;98.20;;;;;;5006591;28;21412;-75
2022/01/08 03:32:41;;;;;;;1.70;1.60;;;1.80;98.20;;;;;;5016219;28;20484;-75
2022/01/08 03:35:08;;;;;;;1.70;1.60;;;1.80;98.20;;;;;;5004295;28;20869;-76
2022/01/08 03:37:35;;;;;;;1.70;1.60;;;1.80;98.20;;;;;;5002681;28;20487;-76
2022/01/08 03:40:02;;;;;;;1.80;1.70;;;1.70;98.20;;;;;;5013004;28;20459;-75
2022/01/08 03:42:28;;;;;;;1.70;1.50;;;1.70;98.20;;;;;;5010397;28;20478;-76
2022/01/08 03:44:55;;;;;;;17.60;9.77;;;1.70;98.20;;;;;;5002437;28;20480;-76
2022/01/08 03:47:31;;;;;;;1.70;1.60;;;1.70;98.20;;;;;;5010285;28;20482;-74
2022/01/08 03:49:59;;;;;;;1.70;1.57;;;1.70;98.20;;;;;;5006625;28;20911;-77
2022/01/08 03:52:27;;;;;;;1.90;1.80;;;1.70;98.20;;;;;;4997865;28;20493;-76
2022/01/08 03:54:53;;;;;;;1.70;1.40;;;1.70;98.20;;;;;;5007674;28;20496;-74
2022/01/08 03:57:20;;;;;;;1.70;1.57;;;1.70;98.20;;;;;;5012954;28;20492;-76
2022/01/08 03:59:48;;;;;;;1.70;1.50;;;1.70;98.20;;;;;;4996928;28;20549;-76
2022/01/08 04:02:15;;;;;;;1.70;1.50;;;1.80;98.20;;;;;;4988797;28;20488;-75
2022/01/08 04:04:48;;;;;;;1.70;1.53;;;1.80;98.20;;;;;;4999734;28;20553;-76
2022/01/08 04:07:15;;;;;;;1.70;1.60;;;1.80;98.20;;;;;;5003175;28;20567;-75
2022/01/08 04:09:42;;;;;;;1.80;1.70;;;1.90;98.20;;;;;;5009074;28;20956;-75
2022/01/08 04:12:09;;;;;;;1.70;1.40;;;1.90;98.20;;;;;;5002784;28;20487;-77
2022/01/08 04:14:49;;;;;;;1.70;1.50;;;1.90;98.20;;;;;;5015041;28;20496;-77
2022/01/08 04:17:16;;;;;;;1.70;1.50;;;1.90;98.20;;;;;;4997576;28;20568;-76
2022/01/08 04:19:43;;;;;;;1.70;1.50;;;2.00;98.20;;;;;;5011155;28;20843;-76
2022/01/08 04:22:12;;;;;;;2.00;1.83;;;2.00;98.20;;;;;;5006183;28;20477;-76
2022/01/08 04:24:40;;;;;;;1.70;1.60;;;2.00;98.20;;;;;;5010243;28;20575;-77
2022/01/08 04:27:07;;;;;;;2.87;2.67;;;2.00;98.20;;;;;;5004803;28;20554;-75
2022/01/08 04:29:35;;;;;;;1.70;1.60;;;2.00;98.20;;;;;;5007677;28;20482;-75
2022/01/08 04:32:01;;;;;;;1.67;1.50;;;2.00;98.20;;;;;;4995032;28;20490;-76
2022/01/08 04:34:28;;;;;;;1.70;1.50;;;2.00;98.20;;;;;;5012509;28;20495;-75
2022/01/08 04:36:55;;;;;;;1.80;1.70;;;2.00;98.20;;;;;;4997032;28;20475;-77
2022/01/08 04:39:23;;;;;;;1.70;1.60;;;2.00;98.20;;;;;;5001220;28;20469;-77
2022/01/08 04:41:50;;;;;;;1.70;1.60;;;2.00;98.20;;;;;;4995406;28;21030;-76
2022/01/08 04:44:17;;;;;;;1.63;1.40;;;2.00;98.20;;;;;;5000616;28;20481;-75
2022/01/08 04:46:44;;;;;;;1.70;1.50;;;2.00;98.20;;;;;;4993848;28;20526;-76
2022/01/08 04:49:11;;;;;;;1.80;1.70;;;1.90;98.20;;;;;;5007817;28;20460;-76
2022/01/08 04:51:38;;;;;;;1.70;1.50;;;1.90;98.20;;;;;;4991610;28;21034;-75
2022/01/08 04:54:05;;;;;;;1.70;1.50;;;1.90;98.20;;;;;;5011844;28;20496;-75
2022/01/08 04:56:33;;;;;;;1.67;1.50;;;1.90;98.20;;;;;;5003800;28;20474;-76
2022/01/08 04:59:00;;;;;;;1.80;1.70;;;1.80;98.20;;;;;;5010399;28;20599;-77
2022/01/08 05:01:26;;;;;;;1.60;1.40;;;1.80;98.20;;;;;;4988177;28;20484;-75
2022/01/08 05:03:53;;;;;;;1.63;1.50;;;1.80;98.20;;;;;;5006640;28;20476;-74
2022/01/08 05:06:20;;;;;;;1.70;1.60;;;1.80;98.20;;;;;;4992784;28;20483;-75
2022/01/08 05:08:47;;;;;;;1.70;1.50;;;1.80;98.20;;;;;;5006646;28;20461;-75
2022/01/08 05:11:14;;;;;;;1.73;1.63;;;1.80;98.20;;;;;;4992536;28;20482;-75
2022/01/08 05:13:44;;;;;;;1.77;1.67;;;1.80;98.20;;;;;;5010932;28;20493;-77
2022/01/08 05:16:11;;;;;;;1.87;1.77;;;1.80;98.20;;;;;;4988089;28;20567;-75
2022/01/08 05:18:38;;;;;;;1.80;1.70;;;1.80;98.20;;;;;;5009045;28;20496;-75
2022/01/08 05:21:21;;;;;;;1.70;1.60;;;1.80;98.20;;;;;;4997499;28;20841;-75
2022/01/08 05:23:48;;;;;;;1.80;1.70;;;1.80;98.20;;;;;;5015355;28;20809;-75
2022/01/08 05:26:15;;;;;;;1.70;1.60;;;1.70;98.20;;;;;;5000789;28;20475;-75
2022/01/08 05:28:46;;;;;;;1.70;1.60;;;1.70;98.20;;;;;;5009378;28;20510;-76
2022/01/08 05:31:15;;;;;;;1.70;1.50;;;1.70;98.20;;;;;;5002021;28;21095;-76
2022/01/08 05:33:42;;;;;;;1.63;1.50;;;1.70;98.20;;;;;;5009319;28;20491;-75
2022/01/08 05:36:09;;;;;;;1.70;1.57;;;1.70;98.20;;;;;;4999747;28;20971;-76
2022/01/08 05:38:35;;;;;;;1.70;1.50;;;1.70;98.20;;;;;;5014982;28;20464;-74
2022/01/08 05:41:02;;;;;;;1.70;1.50;;;1.70;98.20;;;;;;4989785;28;20544;-76
2022/01/08 05:43:30;;;;;;;1.70;1.50;;;1.70;98.20;;;;;;5005446;28;20669;-74
2022/01/08 05:45:58;;;;;;;1.70;1.60;;;1.70;98.20;;;;;;4982678;28;20481;-75
2022/01/08 05:48:26;;;;;;;1.70;1.60;;;1.70;98.20;;;;;;5017408;28;20724;-76
2022/01/08 05:50:53;;;;;;;1.70;1.57;;;1.70;98.20;;;;;;4994518;28;20469;-74
2022/01/08 05:53:21;;;;;;;2.00;1.80;;;1.60;98.20;;;;;;5029646;28;20461;-76
2022/01/08 05:55:49;;;;;;;1.70;1.57;;;1.60;98.20;;;;;;5013055;28;20493;-76
2022/01/08 05:58:16;;;;;;;1.67;1.50;;;1.50;98.20;;;;;;4999004;28;20534;-74
2022/01/08 06:00:43;;;;;;;1.70;1.60;;;1.50;98.20;;;;;;4997035;28;20479;-75
2022/01/08 06:03:11;;;;;;;1.70;1.50;;;1.50;98.20;;;;;;5000627;28;20484;-76
2022/01/08 06:05:38;;;;;;;1.70;1.60;;;1.50;98.20;;;;;;4995007;28;20484;-76
2022/01/08 06:08:05;;;;;;;1.70;1.50;;;1.40;98.20;;;;;;5010595;28;20661;-75
2022/01/08 06:10:32;;;;;;;1.80;1.70;;;1.40;98.20;;;;;;4991344;28;20473;-77
2022/01/08 06:12:58;;;;;;;1.70;1.60;;;1.40;98.20;;;;;;4992853;28;20532;-74
2022/01/08 06:15:25;;;;;;;1.77;1.67;;;1.30;98.20;;;;;;4994715;28;20842;-76
2022/01/08 06:17:52;;;;;;;1.70;1.50;;;1.30;98.20;;;;;;5001740;28;20506;-76
2022/01/08 06:20:21;;;;;;;1.70;1.57;;;1.30;98.20;;;;;;5001979;28;20834;-75
2022/01/08 06:22:48;;;;;;;2.00;1.80;;;1.30;98.20;;;;;;5000184;28;20491;-75
2022/01/08 06:25:14;;;;;;;1.80;1.70;;;1.30;98.20;;;;;;5005533;28;20482;-77
2022/01/08 06:27:41;;;;;;;1.70;1.50;;;1.30;98.20;;;;;;5006608;28;20487;-75
2022/01/08 06:30:09;;;;;;;2.00;1.80;;;1.30;98.20;;;;;;4994296;28;20479;-75
2022/01/08 06:32:36;;;;;;;1.80;1.70;;;1.30;98.20;;;;;;5006382;28;20862;-75
2022/01/08 06:35:03;;;;;;;1.67;1.50;;;1.30;98.20;;;;;;5006753;28;20476;-76
2022/01/08 06:37:32;;;;;;;1.77;1.67;;;1.30;98.20;;;;;;4991817;28;20554;-76
2022/01/08 06:39:59;;;;;;;1.70;1.50;;;1.30;98.20;;;;;;5000959;28;20966;-75
2022/01/08 06:42:25;;;;;;;1.70;1.60;;;1.30;98.20;;;;;;5009397;28;20582;-73
2022/01/08 06:44:52;;;;;;;1.70;1.50;;;1.20;98.20;;;;;;5007982;28;20480;-77
2022/01/08 06:47:19;;;;;;;1.80;1.70;;;1.20;98.20;;;;;;5001926;28;20478;-75
2022/01/08 06:49:46;;;;;;;1.70;1.60;;;1.30;98.20;;;;;;5012575;28;20473;-74
2022/01/08 06:52:13;;;;;;;1.70;1.50;;;1.30;98.20;;;;;;5007633;28;20635;-76
2022/01/08 06:54:41;;;;;;;1.70;1.60;;;1.30;98.20;;;;;;5000927;28;20499;-75
2022/01/08 06:57:08;;;;;;;1.70;1.50;;;1.40;98.20;;;;;;5010807;28;20490;-74
2022/01/08 06:59:35;;;;;;;1.70;1.50;;;1.40;98.20;;;;;;5007245;28;20479;-75
2022/01/08 07:02:01;;;;;;;1.70;1.60;;;1.40;98.20;;;;;;5001008;28;20490;-75
2022/01/08 07:04:28;;;;;;;1.67;1.50;;;1.40;98.20;;;;;;5007395;28;20484;-75
2022/01/08 07:06:55;;;;;;;1.80;1.70;;;1.40;98.20;;;;;;4992114;28;20483;-75
2022/01/08 07:09:22;;;;;;;1.90;1.80;;;1.40;98.20;;;;;;5011200;28;20468;-76
2022/01/08 07:11:50;;;;;;;1.70;1.50;;;1.40;98.20;;;;;;4992745;28;20484;-75
2022/01/08 07:14:16;;;;;;;1.70;1.50;;;1.40;98.20;;;;;;5012410;28;20483;-74
2022/01/08 07:16:44;;;;;;;1.70;1.60;;;1.40;98.20;;;;;;4993223;28;21057;-75
2022/01/08 07:19:10;;;;;;;1.70;1.50;;;1.40;98.20;;;;;;5011550;28;20453;-75
2022/01/08 07:21:37;;;;;;;1.70;1.60;;;1.40;98.20;;;;;;4985622;28;20483;-75
2022/01/08 07:24:04;;;;;;;1.70;1.60;;;1.30;98.20;;;;;;5001379;28;20507;-76
2022/01/08 07:26:31;;;;;;;1.70;1.53;;;1.30;98.20;;;;;;4996385;28;20997;-75
2022/01/08 07:28:59;;;;;;;1.70;1.50;;;1.30;98.20;;;;;;5016509;28;20493;-74
2022/01/08 07:31:25;;;;;;;1.70;1.60;;;1.30;98.20;;;;;;4989208;28;20487;-74
2022/01/08 07:33:52;;;;;;;1.67;1.50;;;1.30;98.20;;;;;;5003290;28;20616;-75
2022/01/08 07:36:20;;;;;;;1.70;1.60;;;1.30;98.20;;;;;;4996851;28;21353;-76
2022/01/08 07:38:47;;;;;;;1.70;1.57;;;1.30;98.20;;;;;;5022773;28;20525;-79
2022/01/08 07:41:14;;;;;;;1.70;1.50;;;1.30;98.20;;;;;;4991259;28;20476;-76
2022/01/08 07:43:41;;;;;;;1.70;1.60;;;1.30;98.20;;;;;;5008092;28;20476;-74
2022/01/08 07:46:09;;;;;;;1.80;1.70;;;1.30;98.20;;;;;;4988483;28;20487;-76
2022/01/08 07:48:36;;;;;;;1.70;1.50;;;1.30;98.20;;;;;;5005646;28;20499;-76
2022/01/08 07:51:03;;;;;;;1.70;1.60;;;1.30;98.20;;;;;;5007931;28;20467;-76
2022/01/08 07:53:30;;;;;;;1.70;1.60;;;1.30;98.20;;;;;;4999280;28;20468;-74
2022/01/08 07:55:57;;;;;;;1.70;1.60;;;1.30;98.20;;;;;;5018918;23;20507;-71
2022/01/08 07:58:23;;;;;;;1.67;1.50;;;1.30;98.20;;;;;;5024022;28;20456;-71
2022/01/08 08:00:53;;;;;;;1.70;1.50;;;1.30;98.20;;;;;;5001086;28;20994;-70
2022/01/08 08:03:22;;;;;;;1.70;1.50;;;1.40;98.20;;;;;;5025412;28;20472;-70
2022/01/08 08:05:49;;;;;;;1.67;1.50;;;1.40;98.20;;;;;;5000236;28;20972;-72
2022/01/08 08:08:17;;;;;;;1.70;1.60;;;1.40;98.20;;;;;;5025452;28;20494;-72
2022/01/08 08:10:43;;;;;;;1.67;1.50;;;1.40;98.20;;;;;;5009546;28;20530;-72
2022/01/08 08:13:11;;;;;;;1.80;1.70;;;1.50;98.20;;;;;;5015728;28;20488;-73
2022/01/08 08:15:37;;;;;;;1.70;1.60;;;1.50;98.20;;;;;;5009956;28;20495;-72
2022/01/08 08:18:04;;;;;;;1.70;1.60;;;1.50;98.20;;;;;;5015559;28;20479;-72
2022/01/08 08:20:32;;;;;;;1.70;1.50;;;1.50;98.20;;;;;;5009868;28;20490;-72
2022/01/08 08:22:59;;;;;;;1.70;1.50;;;1.50;98.20;;;;;;5015619;28;20897;-72
2022/01/08 08:25:26;;;;;;;1.80;1.70;;;1.60;98.20;;;;;;5010847;28;20487;-72
2022/01/08 08:27:53;;;;;;;1.80;1.70;;;1.60;98.20;;;;;;5020347;28;20487;-72
2022/01/08 08:30:21;;;;;;;1.70;1.60;;;1.70;98.20;;;;;;5010230;28;20460;-72
2022/01/08 08:32:48;;;;;;;1.70;1.60;;;1.70;98.20;;;;;;5013598;28;20535;-72
2022/01/08 08:35:15;;;;;;;1.80;1.70;;;1.70;98.20;;;;;;5008071;28;20535;-72
2022/01/08 08:37:43;;;;;;;1.70;1.60;;;1.80;98.20;;;;;;5017454;28;21002;-72
2022/01/08 08:40:12;;;;;;;1.70;1.60;;;1.80;98.20;;;;;;5011571;28;20456;-72
2022/01/08 08:42:40;;;;;;;1.70;1.50;;;1.90;98.20;;;;;;5013612;28;20483;-72
2022/01/08 08:45:08;;;;;;;1.70;1.47;;;1.90;98.20;;;;;;5006654;28;20491;-72
2022/01/08 08:47:35;;;;;;;1.87;1.77;;;1.90;98.20;;;;;;5012327;28;20494;-72
2022/01/08 08:50:03;;;;;;;1.63;1.40;;;2.00;98.20;;;;;;5011234;28;20526;-72
2022/01/08 08:52:30;;;;;;;1.80;1.70;;;2.00;98.20;;;;;;5010284;28;21049;-71
2022/01/08 08:54:58;;;;;;;1.80;1.70;;;2.10;98.20;;;;;;5008494;28;20492;-68
2022/01/08 08:57:26;;;;;;;1.70;1.60;;;2.10;98.20;;;;;;5019504;28;20896;-69
2022/01/08 08:59:55;;;;;;;1.70;1.50;;;2.20;98.20;;;;;;5012331;28;20567;-70
2022/01/08 09:02:22;;;;;;;1.77;1.67;;;2.20;98.20;;;;;;5010125;28;20735;-69
2022/01/08 09:04:49;;;;;;;1.80;1.70;;;2.30;98.20;;;;;;5013693;28;20484;-71
2022/01/08 09:07:16;;;;;;;1.70;1.50;;;2.40;98.20;;;;;;5010728;28;20475;-68
2022/01/08 09:09:43;;;;;;;1.70;1.50;;;2.40;98.20;;;;;;5010692;28;20494;-70
2022/01/08 09:12:15;;;;;;;1.70;1.50;;;2.40;98.20;;;;;;5009778;28;20483;-70
2022/01/08 09:14:42;;;;;;;1.70;1.50;;;2.50;98.20;;;;;;5012480;28;20480;-70
2022/01/08 09:17:09;;;;;;;1.67;1.50;;;2.60;98.20;;;;;;5007042;28;20902;-69
2022/01/08 09:19:37;;;;;;;1.70;1.50;;;2.60;98.20;;;;;;5013046;28;20463;-68
2022/01/08 09:22:04;;;;;;;1.70;1.50;;;2.70;98.20;;;;;;5002081;28;20995;-69
2022/01/08 09:24:32;;;;;;;1.70;1.50;;;2.80;98.20;;;;;;5001378;28;20484;-69
2022/01/08 09:26:59;;;;;;;1.70;1.50;;;2.90;98.20;;;;;;5004261;28;20483;-69
2022/01/08 09:29:27;;;;;;;1.70;1.50;;;2.90;98.20;;;;;;5008591;28;20515;-69
2022/01/08 09:31:54;;;;;;;1.70;1.50;;;3.00;98.20;;;;;;4999592;28;20483;-69
2022/01/08 09:34:21;;;;;;;1.70;1.50;;;3.00;98.20;;;;;;5011770;28;20464;-69
2022/01/08 09:36:48;;;;;;;1.70;1.60;;;3.10;98.20;;;;;;5000322;28;20831;-69
2022/01/08 09:39:15;;;;;;;1.70;1.50;;;3.20;98.20;;;;;;5015042;28;20923;-70
2022/01/08 09:41:42;;;;;;;1.70;1.50;;;3.20;98.20;;;;;;4997072;28;20483;-71
2022/01/08 09:44:09;;;;;;;1.70;1.50;;;3.30;98.20;;;;;;5011286;28;20554;-71
2022/01/08 09:46:37;;;;;;;1.70;1.60;;;3.30;98.20;;;;;;4999058;28;20475;-70
2022/01/08 09:49:04;;;;;;;1.60;1.40;;;3.40;98.20;;;;;;5010325;28;20483;-70
2022/01/08 09:51:30;;;;;;;1.70;1.40;;;3.40;98.20;;;;;;4997531;28;20727;-70
2022/01/08 09:53:57;;;;;;;1.70;1.50;;;3.50;98.20;;;;;;5014551;28;20835;-70
2022/01/08 09:56:26;;;;;;;1.70;1.60;;;3.50;98.20;;;;;;4998983;28;20479;-71
2022/01/08 09:58:53;;;;;;;1.70;1.57;;;3.50;98.20;;;;;;5013547;28;20791;-71
2022/01/08 10:01:25;;;;;;;1.63;1.40;;;3.50;98.20;;;;;;4997862;28;20506;-70
2022/01/08 10:03:54;;;;;;;1.60;1.40;;;3.60;98.20;;;;;;5013759;28;20464;-71
2022/01/08 10:06:23;;;;;;;2.63;2.43;;;3.70;98.20;;;;;;4999518;28;20575;-70
2022/01/08 10:08:51;;;;;;;1.70;1.50;;;3.70;98.20;;;;;;5002091;28;20492;-71
2022/01/08 10:11:19;;;;;;;1.70;1.40;;;3.70;98.20;;;;;;4995009;28;20479;-71
2022/01/08 10:13:51;;;;;;;1.60;1.40;;;3.80;98.20;;;;;;5021229;28;20464;-71
2022/01/08 10:19:17;;;;;;;1.60;1.30;;;3.80;98.20;;;;;;5015545;28;21082;-71
2022/01/08 10:21:45;;;;;;;1.70;1.40;;;3.80;98.20;;;;;;4998203;28;20789;-71
2022/01/08 10:24:12;;;;;;;1.70;1.60;;;3.90;98.20;;;;;;5009309;28;20478;-71
2022/01/08 10:26:40;;;;;;;1.70;1.40;;;3.90;98.20;;;;;;5001413;28;21089;-71
2022/01/08 10:29:12;;;;;;;1.60;1.30;;;3.90;98.20;;;;;;5013219;28;20484;-71
2022/01/08 10:31:41;;;;;;;1.70;1.53;;;3.90;98.20;;;;;;4998133;28;20801;-71
2022/01/08 10:34:12;;;;;;;1.70;1.50;;;3.90;98.20;;;;;;5009083;28;20476;-71
2022/01/08 10:36:40;;;;;;;1.70;1.50;;;3.90;98.20;;;;;;5003824;28;20481;-71
2022/01/08 10:39:09;;;;;;;1.70;1.40;;;3.90;98.20;;;;;;5011406;28;20464;-71
2022/01/08 10:41:40;;;;;;;1.63;1.30;;;4.00;98.20;;;;;;5002027;28;20866;-71
2022/01/08 10:44:10;;;;;;;1.70;1.47;;;4.10;98.20;;;;;;5014071;28;20472;-71
2022/01/08 10:46:38;;;;;;;1.70;1.53;;;4.10;98.20;;;;;;5001309;28;21195;-71
2022/01/08 10:49:05;;;;;;;1.70;1.40;;;4.20;98.20;;;;;;5010835;28;20498;-71
2022/01/08 10:51:38;;;;;;;1.67;1.40;;;4.20;98.20;;;;;;4999012;28;20494;-71
2022/01/08 10:54:08;;;;;;;1.70;1.40;;;4.20;98.20;;;;;;5010444;28;20470;-72
2022/01/08 10:56:38;;;;;;;2.90;2.70;;;4.30;98.20;;;;;;5001194;28;20494;-71
2022/01/08 10:59:09;;;;;;;1.70;1.50;;;4.30;98.20;;;;;;5012511;28;20473;-70
2022/01/08 11:01:41;;;;;;;1.63;1.30;;;4.30;98.20;;;;;;5000675;28;20475;-70
2022/01/08 11:04:10;;;;;;;1.67;1.43;;;4.30;98.20;;;;;;5016269;28;20982;-71
2022/01/08 11:06:51;;;;;;;1.70;1.40;;;4.30;98.20;;;;;;5003768;28;20569;-70
2022/01/08 11:09:18;;;;;;;1.60;1.40;;;4.20;98.20;;;;;;5017855;28;20490;-71
2022/01/08 11:11:45;;;;;;;1.60;1.30;;;4.30;98.20;;;;;;5004707;28;20494;-71
2022/01/08 11:14:23;;;;;;;1.63;1.30;;;4.30;98.20;;;;;;5013791;28;20549;-70
2022/01/08 11:16:52;;;;;;;1.70;1.40;;;4.40;98.20;;;;;;5000281;28;21007;-71
2022/01/08 11:19:20;;;;;;;1.70;1.40;;;4.40;98.20;;;;;;5008823;28;20501;-70
2022/01/08 11:21:50;;;;;;;1.63;1.30;;;4.40;98.20;;;;;;4999402;28;20482;-70
2022/01/08 11:24:18;;;;;;;1.70;1.40;;;4.50;98.20;;;;;;5004092;28;20472;-71
2022/01/08 11:26:51;;;;;;;1.70;1.30;;;4.50;98.20;;;;;;5002099;28;20891;-71
2022/01/08 11:29:23;;;;;;;1.80;1.60;;;4.60;98.20;;;;;;5015586;28;20491;-72
2022/01/08 11:31:55;;;;;;;1.67;1.33;;;4.60;98.20;;;;;;5000550;28;20520;-71
2022/01/08 11:34:24;;;;;;;1.77;1.67;;;4.60;98.20;;;;;;5012794;28;20468;-71
2022/01/08 11:36:54;;;;;;;1.70;1.40;;;4.60;98.20;;;;;;5007599;28;20913;-70
2022/01/08 11:39:27;;;;;;;1.60;1.33;;;4.50;98.20;;;;;;5013230;28;20463;-71
2022/01/08 11:41:55;;;;;;;1.70;1.40;;;4.50;98.20;;;;;;5003307;28;20828;-71
2022/01/08 11:44:23;;;;;;;1.60;1.20;;;4.50;98.20;;;;;;5011280;28;20503;-70
2022/01/08 11:46:50;;;;;;;1.60;1.30;;;4.50;98.20;;;;;;5005206;28;20510;-71
2022/01/08 11:49:18;;;;;;;1.70;1.40;;;4.50;98.20;;;;;;5016392;28;20502;-71
2022/01/08 11:51:45;;;;;;;1.67;1.30;;;4.50;98.20;;;;;;5002852;28;20525;-71
2022/01/08 11:54:13;;;;;;;1.73;1.60;;;4.60;98.20;;;;;;5012427;28;20845;-70
2022/01/08 11:56:40;;;;;;;1.70;1.40;;;4.70;98.20;;;;;;5004102;28;20493;-71
2022/01/08 11:59:09;;;;;;;1.70;1.40;;;4.70;98.20;;;;;;5016304;28;21313;-71
2022/01/08 12:01:36;;;;;;;1.60;1.30;;;4.80;98.20;;;;;;5001269;28;20880;-70
2022/01/08 12:04:04;;;;;;;1.60;1.30;;;4.90;98.20;;;;;;5013185;28;20543;-70
2022/01/08 12:06:39;;;;;;;1.70;1.40;;;4.90;98.20;;;;;;5000434;28;20532;-71
2022/01/08 12:09:22;;;;;;;1.60;1.30;;;4.90;98.20;;;;;;5011727;28;20914;-71
2022/01/08 12:11:57;;;;;;;1.70;1.40;;;4.90;98.20;;;;;;5002789;28;21060;-71
2022/01/08 12:14:25;;;;;;;1.70;1.37;;;5.00;98.20;;;;;;5007961;28;21857;-71
2022/01/08 12:16:53;;;;;;;1.70;1.53;;;5.00;98.20;;;;;;5000618;28;20467;-71
2022/01/08 12:19:36;;;;;;;1.70;1.40;;;5.00;98.20;;;;;;5011814;28;20484;-70
2022/01/08 12:22:36;;;;;;;1.63;1.30;;;5.00;98.20;;;;;;5003440;28;20574;-71
2022/01/08 12:25:03;;;;;;;1.60;1.27;;;5.00;98.20;;;;;;5003822;28;20488;-70
2022/01/08 12:27:43;;;;;;;1.70;1.60;;;5.00;98.20;;;;;;5009339;28;20490;-71
2022/01/08 12:30:37;;;;;;;1.63;1.30;;;5.00;98.20;;;;;;5002424;28;20495;-71
2022/01/08 12:33:19;;;;;;;1.60;1.30;;;5.00;98.20;;;;;;5010176;28;20483;-71
2022/01/08 12:35:46;;;;;;;1.60;1.30;;;5.00;98.20;;;;;;4998163;28;20484;-71
2022/01/08 12:38:31;;;;;;;1.93;1.73;;;5.10;98.20;;;;;;5019936;28;20472;-71
2022/01/08 12:40:59;;;;;;;1.60;1.33;;;5.10;98.20;;;;;;4995205;28;20468;-71
2022/01/08 12:43:34;;;;;;;1.70;1.40;;;5.00;98.20;;;;;;5018445;28;21032;-71
2022/01/08 12:46:23;;;;;;;1.60;1.30;;;5.00;98.20;;;;;;4993769;28;20494;-71
2022/01/08 12:49:11;;;;;;;1.60;1.30;;;5.00;98.20;;;;;;5009437;28;20498;-71
2022/01/08 12:51:43;;;;;;;1.70;1.40;;;5.00;98.20;;;;;;5003979;28;20522;-71
2022/01/08 12:54:13;;;;;;;1.60;1.30;;;4.90;98.20;;;;;;5002433;28;20471;-71
2022/01/08 12:56:48;;;;;;;1.70;1.60;;;4.90;98.20;;;;;;5002203;28;20574;-72
2022/01/08 12:59:15;;;;;;;1.60;1.30;;;4.90;98.20;;;;;;5014455;28;20490;-71
2022/01/08 13:01:46;;;;;;;1.67;1.30;;;4.80;98.20;;;;;;4999419;28;20483;-70
2022/01/08 13:04:16;;;;;;;1.60;1.30;;;4.80;98.20;;;;;;5007920;28;20468;-70
2022/01/08 13:06:44;;;;;;;1.70;1.40;;;4.80;98.20;;;;;;5000640;28;20548;-70
2022/01/08 13:09:12;;;;;;;1.70;1.43;;;4.80;98.20;;;;;;5009406;28;20514;-70
2022/01/08 13:11:41;;;;;;;1.70;1.30;;;4.80;98.20;;;;;;4997970;28;20491;-70
2022/01/08 13:14:11;;;;;;;1.60;1.30;;;4.70;98.20;;;;;;5010694;28;20476;-70
2022/01/08 13:16:41;;;;;;;1.60;1.27;;;4.70;98.20;;;;;;4994858;28;20546;-70
2022/01/08 13:19:10;;;;;;;1.70;1.50;;;4.70;98.20;;;;;;5009401;28;21090;-71
2022/01/08 13:21:38;;;;;;;1.67;1.40;;;4.70;98.20;;;;;;4999022;28;20491;-70